ICE546 BIKF-LFPG
Flight info
| Callsign | ICE546 |
|---|---|
| Flight time | 3h 2m |
| Altitude | 37000 |
| Route | PIXUM1A PIXUM DCT PETUX DCT PODAR DCT ADODO/N0452F370 DCT AMTAP DCT AKOMU DCT VAMEB UL612 MID/N0393F290 Y803 SFD UM605 BIBAX |
| Aircraft | B38M/M-SDE1FGHILORVWXY/HB1 |
Departure
| Time | 2026-05-07 12:54 |
|---|---|
| Airport | Keflavik International Airport (BIKF) |
Arrival
| Time | 2026-05-07 15:57 |
|---|---|
| Airport | Charles de Gaulle International Airport (LFPG) |
| Time | Latitude | Longitude | Altitude | Speed | Heading |
|---|---|---|---|---|---|
| 2026-05-07 12:26 | 63.99280 | -22.62190 | 143 ft | 0 kts | 316° |
| 2026-05-07 12:43 | 63.99278 | -22.62187 | 143 ft | 3 kts | 316° |
| 2026-05-07 12:43 | 63.99260 | -22.62143 | 143 ft | 4 kts | 308° |
| 2026-05-07 12:44 | 63.99246 | -22.62093 | 143 ft | 4 kts | 296° |
| 2026-05-07 12:44 | 63.99237 | -22.62036 | 143 ft | 4 kts | 272° |
| 2026-05-07 12:44 | 63.99243 | -22.61989 | 143 ft | 4 kts | 211° |
| 2026-05-07 12:44 | 63.99249 | -22.61983 | 143 ft | 1 kts | 181° |
| 2026-05-07 12:48 | 63.99219 | -22.61985 | 143 ft | 13 kts | 181° |
| 2026-05-07 12:48 | 63.99172 | -22.61804 | 145 ft | 17 kts | 90° |
| 2026-05-07 12:48 | 63.99172 | -22.61526 | 151 ft | 19 kts | 90° |
| 2026-05-07 12:49 | 63.99171 | -22.61184 | 158 ft | 25 kts | 90° |
| 2026-05-07 12:49 | 63.99116 | -22.60944 | 165 ft | 16 kts | 171° |
| 2026-05-07 12:49 | 63.98989 | -22.60939 | 169 ft | 24 kts | 180° |
| 2026-05-07 12:49 | 63.98792 | -22.60934 | 165 ft | 32 kts | 179° |
| 2026-05-07 12:50 | 63.98599 | -22.60941 | 167 ft | 24 kts | 180° |
| 2026-05-07 12:50 | 63.98427 | -22.60940 | 168 ft | 26 kts | 181° |
| 2026-05-07 12:50 | 63.98242 | -22.60941 | 167 ft | 28 kts | 180° |
| 2026-05-07 12:50 | 63.98060 | -22.60941 | 170 ft | 23 kts | 181° |
| 2026-05-07 12:51 | 63.97895 | -22.60943 | 172 ft | 24 kts | 180° |
| 2026-05-07 12:51 | 63.97721 | -22.60942 | 172 ft | 26 kts | 180° |
| 2026-05-07 12:51 | 63.97532 | -22.60941 | 168 ft | 25 kts | 180° |
| 2026-05-07 12:51 | 63.97346 | -22.60939 | 165 ft | 28 kts | 179° |
| 2026-05-07 12:52 | 63.97162 | -22.60942 | 159 ft | 27 kts | 180° |
| 2026-05-07 12:52 | 63.96978 | -22.60942 | 152 ft | 22 kts | 180° |
| 2026-05-07 12:52 | 63.96807 | -22.60941 | 146 ft | 27 kts | 180° |
| 2026-05-07 12:52 | 63.96617 | -22.60941 | 139 ft | 19 kts | 180° |
| 2026-05-07 12:53 | 63.96518 | -22.60914 | 138 ft | 5 kts | 178° |
| 2026-05-07 12:53 | 63.96469 | -22.60886 | 138 ft | 12 kts | 129° |
| 2026-05-07 12:53 | 63.96461 | -22.60653 | 145 ft | 17 kts | 89° |
| 2026-05-07 12:53 | 63.96492 | -22.60533 | 148 ft | 7 kts | 359° |
| 2026-05-07 12:54 | 63.96591 | -22.60540 | 151 ft | 39 kts | 360° |
| 2026-05-07 12:54 | 63.97145 | -22.60537 | 167 ft | 117 kts | 0° |
| 2026-05-07 12:54 | 63.98164 | -22.60493 | 348 ft | 165 kts | 2° |
| 2026-05-07 12:54 | 63.99348 | -22.60529 | 1167 ft | 173 kts | 359° |
| 2026-05-07 12:55 | 64.00565 | -22.60657 | 2074 ft | 180 kts | 0° |
| 2026-05-07 12:55 | 64.01813 | -22.60694 | 3034 ft | 182 kts | 2° |
| 2026-05-07 12:55 | 64.03132 | -22.60662 | 3730 ft | 199 kts | 3° |
| 2026-05-07 12:55 | 64.04563 | -22.60381 | 4450 ft | 215 kts | 19° |
| 2026-05-07 12:56 | 64.05784 | -22.58341 | 5273 ft | 221 kts | 55° |
| 2026-05-07 12:56 | 64.06305 | -22.54957 | 6182 ft | 234 kts | 84° |
| 2026-05-07 12:56 | 64.06269 | -22.51233 | 7179 ft | 239 kts | 87° |
| 2026-05-07 12:56 | 64.06280 | -22.47298 | 7826 ft | 257 kts | 87° |
| 2026-05-07 12:57 | 64.05938 | -22.43199 | 8622 ft | 270 kts | 114° |
| 2026-05-07 12:57 | 64.04753 | -22.39825 | 9589 ft | 281 kts | 139° |
| 2026-05-07 12:57 | 64.03054 | -22.37463 | 10418 ft | 289 kts | 146° |
| 2026-05-07 12:57 | 64.01504 | -22.34434 | 10929 ft | 302 kts | 125° |
| 2026-05-07 12:58 | 64.00156 | -22.30597 | 11499 ft | 318 kts | 129° |
| 2026-05-07 12:58 | 63.98621 | -22.26822 | 12155 ft | 329 kts | 131° |
| 2026-05-07 12:58 | 63.97031 | -22.23045 | 13014 ft | 332 kts | 131° |
| 2026-05-07 12:58 | 63.95406 | -22.19249 | 13793 ft | 337 kts | 132° |
| 2026-05-07 12:59 | 63.93750 | -22.15429 | 14570 ft | 342 kts | 132° |
| 2026-05-07 12:59 | 63.92066 | -22.11576 | 15320 ft | 346 kts | 133° |
| 2026-05-07 12:59 | 63.90352 | -22.07675 | 16055 ft | 351 kts | 133° |
| 2026-05-07 12:59 | 63.88630 | -22.03763 | 16823 ft | 351 kts | 133° |
| 2026-05-07 13:00 | 63.86876 | -21.99785 | 17429 ft | 359 kts | 133° |
| 2026-05-07 13:00 | 63.85102 | -21.95772 | 18126 ft | 362 kts | 133° |
| 2026-05-07 13:00 | 63.83306 | -21.91717 | 18757 ft | 367 kts | 133° |
| 2026-05-07 13:00 | 63.81485 | -21.87619 | 19379 ft | 370 kts | 133° |
| 2026-05-07 13:01 | 63.79653 | -21.83501 | 19978 ft | 373 kts | 133° |
| 2026-05-07 13:01 | 63.77801 | -21.79347 | 20547 ft | 377 kts | 133° |
| 2026-05-07 13:01 | 63.75930 | -21.75156 | 21113 ft | 380 kts | 134° |
| 2026-05-07 13:01 | 63.74044 | -21.70939 | 21664 ft | 384 kts | 133° |
| 2026-05-07 13:02 | 63.72133 | -21.66678 | 22178 ft | 387 kts | 134° |
| 2026-05-07 13:02 | 63.70210 | -21.62397 | 22703 ft | 390 kts | 134° |
| 2026-05-07 13:02 | 63.68266 | -21.58078 | 23215 ft | 393 kts | 134° |
| 2026-05-07 13:02 | 63.66333 | -21.53793 | 23692 ft | 397 kts | 134° |
| 2026-05-07 13:03 | 63.64358 | -21.49426 | 24174 ft | 400 kts | 134° |
| 2026-05-07 13:03 | 63.62369 | -21.45034 | 24645 ft | 402 kts | 134° |
| 2026-05-07 13:03 | 63.60365 | -21.40617 | 25081 ft | 405 kts | 134° |
| 2026-05-07 13:03 | 63.58340 | -21.36166 | 25496 ft | 409 kts | 134° |
| 2026-05-07 13:04 | 63.56303 | -21.31696 | 25937 ft | 411 kts | 134° |
| 2026-05-07 13:04 | 63.54248 | -21.27196 | 26352 ft | 414 kts | 134° |
| 2026-05-07 13:04 | 63.52182 | -21.22683 | 26749 ft | 416 kts | 134° |
| 2026-05-07 13:04 | 63.50095 | -21.18134 | 27103 ft | 420 kts | 134° |
| 2026-05-07 13:05 | 63.47995 | -21.13565 | 27501 ft | 422 kts | 134° |
| 2026-05-07 13:05 | 63.45878 | -21.08971 | 27850 ft | 425 kts | 134° |
| 2026-05-07 13:05 | 63.43750 | -21.04361 | 28250 ft | 427 kts | 134° |
| 2026-05-07 13:05 | 63.41608 | -20.99732 | 28599 ft | 430 kts | 134° |
| 2026-05-07 13:06 | 63.39452 | -20.95083 | 28941 ft | 433 kts | 134° |
| 2026-05-07 13:06 | 63.37279 | -20.90408 | 29263 ft | 436 kts | 134° |
| 2026-05-07 13:06 | 63.35176 | -20.85535 | 29568 ft | 436 kts | 126° |
| 2026-05-07 13:06 | 63.33377 | -20.80100 | 29926 ft | 437 kts | 125° |
| 2026-05-07 13:07 | 63.31519 | -20.74718 | 30228 ft | 440 kts | 126° |
| 2026-05-07 13:07 | 63.29650 | -20.69308 | 30537 ft | 442 kts | 126° |
| 2026-05-07 13:07 | 63.27770 | -20.63869 | 30830 ft | 445 kts | 126° |
| 2026-05-07 13:07 | 63.25876 | -20.58397 | 31140 ft | 447 kts | 126° |
| 2026-05-07 13:08 | 63.23974 | -20.52916 | 31434 ft | 450 kts | 126° |
| 2026-05-07 13:08 | 63.22055 | -20.47401 | 31718 ft | 452 kts | 126° |
| 2026-05-07 13:08 | 63.20126 | -20.41870 | 31991 ft | 455 kts | 126° |
| 2026-05-07 13:08 | 63.18188 | -20.36324 | 32281 ft | 457 kts | 126° |
| 2026-05-07 13:09 | 63.16230 | -20.30736 | 32529 ft | 460 kts | 126° |
| 2026-05-07 13:09 | 63.14265 | -20.25146 | 32812 ft | 461 kts | 126° |
| 2026-05-07 13:09 | 63.12289 | -20.19534 | 33060 ft | 464 kts | 127° |
| 2026-05-07 13:09 | 63.10302 | -20.13905 | 33345 ft | 465 kts | 127° |
| 2026-05-07 13:10 | 63.08310 | -20.08276 | 33685 ft | 465 kts | 127° |
| 2026-05-07 13:10 | 63.06316 | -20.02658 | 34002 ft | 465 kts | 127° |
| 2026-05-07 13:10 | 63.04319 | -19.97042 | 34338 ft | 465 kts | 127° |
| 2026-05-07 13:10 | 63.02323 | -19.91444 | 34705 ft | 464 kts | 127° |
| 2026-05-07 13:11 | 63.00331 | -19.85870 | 35014 ft | 464 kts | 127° |
| 2026-05-07 13:11 | 62.98331 | -19.80289 | 35308 ft | 464 kts | 127° |
| 2026-05-07 13:11 | 62.96334 | -19.74729 | 35588 ft | 464 kts | 127° |
| 2026-05-07 13:11 | 62.94354 | -19.69230 | 35854 ft | 464 kts | 127° |
| 2026-05-07 13:12 | 62.92350 | -19.63678 | 36132 ft | 464 kts | 128° |
| 2026-05-07 13:12 | 62.90343 | -19.58134 | 36385 ft | 464 kts | 128° |
| 2026-05-07 13:12 | 62.88334 | -19.52595 | 36622 ft | 464 kts | 128° |
| 2026-05-07 13:12 | 62.86324 | -19.47069 | 36953 ft | 462 kts | 128° |
| 2026-05-07 13:13 | 62.84320 | -19.41571 | 37159 ft | 461 kts | 128° |
| 2026-05-07 13:13 | 62.82328 | -19.36121 | 37150 ft | 457 kts | 128° |
| 2026-05-07 13:13 | 62.78368 | -19.25318 | 37137 ft | 455 kts | 128° |
| 2026-05-07 13:14 | 62.74403 | -19.14543 | 37138 ft | 455 kts | 128° |
| 2026-05-07 13:14 | 62.70998 | -19.02973 | 37142 ft | 454 kts | 120° |
| 2026-05-07 13:15 | 62.67758 | -18.91165 | 37142 ft | 454 kts | 120° |
| 2026-05-07 13:15 | 62.64520 | -18.79356 | 37137 ft | 454 kts | 120° |
| 2026-05-07 13:16 | 62.61276 | -18.67580 | 37137 ft | 454 kts | 120° |
| 2026-05-07 13:16 | 62.58026 | -18.55842 | 37139 ft | 454 kts | 121° |
| 2026-05-07 13:17 | 62.54765 | -18.44127 | 37137 ft | 454 kts | 121° |
| 2026-05-07 13:17 | 62.51491 | -18.32423 | 37140 ft | 454 kts | 121° |
| 2026-05-07 13:18 | 62.48205 | -18.20738 | 37139 ft | 454 kts | 121° |
| 2026-05-07 13:18 | 62.44910 | -18.09084 | 37148 ft | 454 kts | 121° |
| 2026-05-07 13:19 | 62.41610 | -17.97472 | 37133 ft | 454 kts | 121° |
| 2026-05-07 13:19 | 62.38307 | -17.85906 | 37117 ft | 453 kts | 122° |
| 2026-05-07 13:20 | 62.34989 | -17.74349 | 37120 ft | 454 kts | 122° |
| 2026-05-07 13:20 | 62.31663 | -17.62821 | 37119 ft | 453 kts | 122° |
| 2026-05-07 13:21 | 62.28327 | -17.51322 | 37118 ft | 454 kts | 122° |
| 2026-05-07 13:21 | 62.24981 | -17.39841 | 37120 ft | 453 kts | 122° |
| 2026-05-07 13:22 | 62.21630 | -17.28403 | 37117 ft | 453 kts | 122° |
| 2026-05-07 13:22 | 62.18273 | -17.17001 | 37115 ft | 452 kts | 122° |
| 2026-05-07 13:23 | 62.14929 | -17.05699 | 37117 ft | 452 kts | 122° |
| 2026-05-07 13:23 | 62.11560 | -16.94369 | 37110 ft | 451 kts | 122° |
| 2026-05-07 13:24 | 62.08183 | -16.83073 | 37109 ft | 451 kts | 123° |
| 2026-05-07 13:24 | 62.04796 | -16.71794 | 37112 ft | 451 kts | 123° |
| 2026-05-07 13:25 | 62.01399 | -16.60539 | 37110 ft | 451 kts | 123° |
| 2026-05-07 13:25 | 61.97999 | -16.49330 | 37111 ft | 451 kts | 123° |
| 2026-05-07 13:26 | 61.94587 | -16.38135 | 37136 ft | 451 kts | 123° |
| 2026-05-07 13:26 | 61.91165 | -16.26964 | 37138 ft | 450 kts | 123° |
| 2026-05-07 13:27 | 61.88323 | -16.17726 | 37138 ft | 450 kts | 123° |
| 2026-05-07 13:27 | 61.84891 | -16.06619 | 37141 ft | 450 kts | 123° |
| 2026-05-07 13:28 | 61.81452 | -15.95546 | 37137 ft | 450 kts | 124° |
| 2026-05-07 13:28 | 61.78005 | -15.84497 | 37140 ft | 450 kts | 124° |
| 2026-05-07 13:29 | 61.74550 | -15.73481 | 37134 ft | 450 kts | 124° |
| 2026-05-07 13:29 | 61.71085 | -15.62482 | 37129 ft | 450 kts | 124° |
| 2026-05-07 13:30 | 61.67607 | -15.51494 | 37127 ft | 451 kts | 124° |
| 2026-05-07 13:30 | 61.64119 | -15.40530 | 37129 ft | 451 kts | 124° |
| 2026-05-07 13:31 | 61.60629 | -15.29597 | 37125 ft | 451 kts | 124° |
| 2026-05-07 13:31 | 61.57130 | -15.18684 | 37107 ft | 451 kts | 124° |
| 2026-05-07 13:32 | 61.53619 | -15.07784 | 37109 ft | 451 kts | 125° |
| 2026-05-07 13:32 | 61.50044 | -14.97000 | 37101 ft | 450 kts | 132° |
| 2026-05-07 13:33 | 61.45432 | -14.88309 | 37063 ft | 448 kts | 138° |
| 2026-05-07 13:33 | 61.43138 | -14.83915 | 37169 ft | 448 kts | 139° |
| 2026-05-07 13:33 | 61.40816 | -14.79553 | 37110 ft | 450 kts | 139° |
| 2026-05-07 13:34 | 61.33828 | -14.66594 | 37102 ft | 448 kts | 140° |
| 2026-05-07 13:35 | 61.29157 | -14.57989 | 37097 ft | 448 kts | 140° |
| 2026-05-07 13:35 | 61.24484 | -14.49414 | 37100 ft | 448 kts | 140° |
| 2026-05-07 13:36 | 61.19809 | -14.40871 | 37096 ft | 448 kts | 140° |
| 2026-05-07 13:36 | 61.15128 | -14.32352 | 37096 ft | 448 kts | 140° |
| 2026-05-07 13:37 | 61.10437 | -14.23851 | 37022 ft | 447 kts | 140° |
| 2026-05-07 13:37 | 61.05749 | -14.15390 | 36943 ft | 447 kts | 140° |
| 2026-05-07 13:38 | 61.01061 | -14.06962 | 36933 ft | 447 kts | 140° |
| 2026-05-07 13:38 | 60.96364 | -13.98554 | 36929 ft | 447 kts | 141° |
| 2026-05-07 13:39 | 60.91664 | -13.90175 | 36929 ft | 446 kts | 141° |
| 2026-05-07 13:39 | 60.86972 | -13.81843 | 36916 ft | 445 kts | 141° |
| 2026-05-07 13:40 | 60.82275 | -13.73536 | 36920 ft | 446 kts | 141° |
| 2026-05-07 13:40 | 60.77572 | -13.65251 | 36909 ft | 446 kts | 141° |
| 2026-05-07 13:41 | 60.72898 | -13.57051 | 36914 ft | 446 kts | 142° |
| 2026-05-07 13:41 | 60.68185 | -13.48816 | 36904 ft | 446 kts | 142° |
| 2026-05-07 13:42 | 60.63439 | -13.40556 | 36895 ft | 445 kts | 142° |
| 2026-05-07 13:42 | 60.58753 | -13.32432 | 36890 ft | 445 kts | 142° |
| 2026-05-07 13:43 | 60.54032 | -13.24281 | 36890 ft | 445 kts | 142° |
| 2026-05-07 13:43 | 60.49308 | -13.16156 | 36896 ft | 445 kts | 142° |
| 2026-05-07 13:44 | 60.44581 | -13.08058 | 36889 ft | 444 kts | 142° |
| 2026-05-07 13:44 | 60.39854 | -12.99992 | 36892 ft | 444 kts | 142° |
| 2026-05-07 13:45 | 60.35128 | -12.91959 | 36874 ft | 443 kts | 143° |
| 2026-05-07 13:45 | 60.30401 | -12.83959 | 36879 ft | 444 kts | 143° |
| 2026-05-07 13:46 | 60.25669 | -12.75979 | 36877 ft | 443 kts | 143° |
| 2026-05-07 13:46 | 60.20937 | -12.68029 | 36877 ft | 443 kts | 143° |
| 2026-05-07 13:47 | 60.16205 | -12.60112 | 36870 ft | 442 kts | 143° |
| 2026-05-07 13:47 | 60.11470 | -12.52219 | 36870 ft | 442 kts | 143° |
| 2026-05-07 13:48 | 60.06771 | -12.44416 | 36871 ft | 441 kts | 144° |
| 2026-05-07 13:48 | 60.02036 | -12.36584 | 36868 ft | 442 kts | 144° |
| 2026-05-07 13:49 | 59.97299 | -12.28780 | 36861 ft | 441 kts | 144° |
| 2026-05-07 13:49 | 59.92561 | -12.21002 | 36863 ft | 441 kts | 144° |
| 2026-05-07 13:50 | 59.87819 | -12.13249 | 36860 ft | 441 kts | 144° |
| 2026-05-07 13:50 | 59.83072 | -12.05515 | 36860 ft | 441 kts | 144° |
| 2026-05-07 13:51 | 59.78316 | -11.97799 | 36857 ft | 441 kts | 144° |
| 2026-05-07 13:51 | 59.73565 | -11.90118 | 36849 ft | 440 kts | 144° |
| 2026-05-07 13:52 | 59.68809 | -11.82459 | 36851 ft | 440 kts | 144° |
| 2026-05-07 13:52 | 59.64051 | -11.74825 | 36854 ft | 440 kts | 145° |
| 2026-05-07 13:53 | 59.59291 | -11.67216 | 36852 ft | 440 kts | 145° |
| 2026-05-07 13:53 | 59.54569 | -11.59697 | 36850 ft | 439 kts | 145° |
| 2026-05-07 13:54 | 59.49806 | -11.52141 | 36846 ft | 439 kts | 145° |
| 2026-05-07 13:54 | 59.45045 | -11.44614 | 36843 ft | 439 kts | 146° |
| 2026-05-07 13:55 | 59.40277 | -11.37108 | 36847 ft | 439 kts | 146° |
| 2026-05-07 13:55 | 59.35516 | -11.29639 | 36840 ft | 438 kts | 146° |
| 2026-05-07 13:56 | 59.30760 | -11.22203 | 36839 ft | 438 kts | 146° |
| 2026-05-07 13:56 | 59.25997 | -11.14785 | 36843 ft | 437 kts | 146° |
| 2026-05-07 13:57 | 59.21233 | -11.07394 | 36834 ft | 437 kts | 146° |
| 2026-05-07 13:57 | 59.16467 | -11.00026 | 36828 ft | 437 kts | 147° |
| 2026-05-07 13:58 | 59.11706 | -10.92691 | 36835 ft | 436 kts | 147° |
| 2026-05-07 13:58 | 59.06943 | -10.85382 | 36836 ft | 436 kts | 147° |
| 2026-05-07 13:59 | 59.02183 | -10.78105 | 36825 ft | 435 kts | 147° |
| 2026-05-07 13:59 | 58.97422 | -10.70851 | 36835 ft | 436 kts | 147° |
| 2026-05-07 14:00 | 58.92686 | -10.63662 | 36832 ft | 435 kts | 147° |
| 2026-05-07 14:00 | 58.87920 | -10.56454 | 36810 ft | 435 kts | 147° |
| 2026-05-07 14:01 | 58.83159 | -10.49277 | 36820 ft | 434 kts | 147° |
| 2026-05-07 14:01 | 58.78404 | -10.42129 | 36824 ft | 433 kts | 148° |
| 2026-05-07 14:02 | 58.73647 | -10.35006 | 36819 ft | 432 kts | 148° |
| 2026-05-07 14:02 | 58.68889 | -10.27903 | 36818 ft | 432 kts | 148° |
| 2026-05-07 14:03 | 58.64132 | -10.20826 | 36821 ft | 432 kts | 148° |
| 2026-05-07 14:03 | 58.59380 | -10.13782 | 36820 ft | 431 kts | 148° |
| 2026-05-07 14:04 | 58.54635 | -10.06771 | 36822 ft | 431 kts | 148° |
| 2026-05-07 14:04 | 58.50155 | -9.99213 | 36779 ft | 442 kts | 132° |
| 2026-05-07 14:04 | 58.48596 | -9.94106 | 36843 ft | 451 kts | 121° |
| 2026-05-07 14:05 | 58.47235 | -9.88687 | 36793 ft | 453 kts | 122° |
| 2026-05-07 14:05 | 58.44464 | -9.77895 | 36831 ft | 454 kts | 122° |
| 2026-05-07 14:06 | 58.41721 | -9.67078 | 36812 ft | 452 kts | 122° |
| 2026-05-07 14:06 | 58.38972 | -9.56273 | 36818 ft | 453 kts | 122° |
| 2026-05-07 14:07 | 58.35470 | -9.46737 | 36853 ft | 430 kts | 145° |
| 2026-05-07 14:07 | 58.31134 | -9.38745 | 36836 ft | 435 kts | 142° |
| 2026-05-07 14:08 | 58.26773 | -9.30763 | 36830 ft | 434 kts | 143° |
| 2026-05-07 14:08 | 58.22396 | -9.22854 | 36815 ft | 435 kts | 143° |
| 2026-05-07 14:09 | 58.18013 | -9.14970 | 36806 ft | 434 kts | 143° |
| 2026-05-07 14:09 | 58.13625 | -9.07107 | 36806 ft | 433 kts | 143° |
| 2026-05-07 14:10 | 58.09239 | -8.99274 | 36806 ft | 434 kts | 143° |
| 2026-05-07 14:10 | 58.04846 | -8.91459 | 36802 ft | 433 kts | 143° |
| 2026-05-07 14:11 | 58.00450 | -8.83665 | 36799 ft | 433 kts | 143° |
| 2026-05-07 14:11 | 57.96063 | -8.75915 | 36802 ft | 431 kts | 143° |
| 2026-05-07 14:12 | 57.91680 | -8.68198 | 36811 ft | 431 kts | 143° |
| 2026-05-07 14:12 | 57.87299 | -8.60509 | 36801 ft | 430 kts | 143° |
| 2026-05-07 14:13 | 57.82947 | -8.52902 | 36811 ft | 431 kts | 144° |
| 2026-05-07 14:13 | 57.78527 | -8.45204 | 36801 ft | 431 kts | 144° |
| 2026-05-07 14:14 | 57.74160 | -8.37622 | 36801 ft | 431 kts | 144° |
| 2026-05-07 14:14 | 57.69757 | -8.30003 | 36804 ft | 432 kts | 144° |
| 2026-05-07 14:15 | 57.66066 | -8.23635 | 36804 ft | 431 kts | 144° |
| 2026-05-07 14:15 | 57.60940 | -8.14825 | 36807 ft | 431 kts | 144° |
| 2026-05-07 14:16 | 57.57243 | -8.08493 | 36802 ft | 431 kts | 144° |
| 2026-05-07 14:16 | 57.52829 | -8.00958 | 36801 ft | 431 kts | 144° |
| 2026-05-07 14:17 | 57.48410 | -7.93438 | 36804 ft | 431 kts | 144° |
| 2026-05-07 14:17 | 57.43991 | -7.85944 | 36790 ft | 430 kts | 144° |
| 2026-05-07 14:18 | 57.39597 | -7.78522 | 36804 ft | 430 kts | 144° |
| 2026-05-07 14:18 | 57.35176 | -7.71075 | 36801 ft | 429 kts | 144° |
| 2026-05-07 14:19 | 57.30748 | -7.63642 | 36805 ft | 430 kts | 144° |
| 2026-05-07 14:19 | 57.26319 | -7.56236 | 36805 ft | 429 kts | 144° |
| 2026-05-07 14:20 | 57.21889 | -7.48845 | 36806 ft | 429 kts | 144° |
| 2026-05-07 14:20 | 57.17452 | -7.41476 | 36808 ft | 429 kts | 144° |
| 2026-05-07 14:21 | 57.13007 | -7.34115 | 36815 ft | 429 kts | 144° |
| 2026-05-07 14:21 | 57.08570 | -7.26794 | 36816 ft | 428 kts | 144° |
| 2026-05-07 14:22 | 57.04127 | -7.19485 | 36815 ft | 428 kts | 144° |
| 2026-05-07 14:22 | 56.99680 | -7.12196 | 36821 ft | 428 kts | 144° |
| 2026-05-07 14:23 | 56.95232 | -7.04928 | 36835 ft | 428 kts | 144° |
| 2026-05-07 14:23 | 56.90779 | -6.97677 | 36835 ft | 428 kts | 144° |
| 2026-05-07 14:24 | 56.86326 | -6.90448 | 36839 ft | 428 kts | 144° |
| 2026-05-07 14:24 | 56.81895 | -6.83281 | 36844 ft | 428 kts | 144° |
| 2026-05-07 14:25 | 56.77433 | -6.76087 | 36851 ft | 428 kts | 144° |
| 2026-05-07 14:25 | 56.72965 | -6.68907 | 36851 ft | 428 kts | 144° |
| 2026-05-07 14:26 | 56.68497 | -6.61751 | 36851 ft | 427 kts | 144° |
| 2026-05-07 14:26 | 56.64026 | -6.54614 | 36850 ft | 427 kts | 144° |
| 2026-05-07 14:27 | 56.59554 | -6.47498 | 36866 ft | 428 kts | 144° |
| 2026-05-07 14:27 | 56.55081 | -6.40403 | 36855 ft | 427 kts | 144° |
| 2026-05-07 14:28 | 56.50608 | -6.33331 | 36862 ft | 427 kts | 144° |
| 2026-05-07 14:28 | 56.46133 | -6.26280 | 36862 ft | 426 kts | 144° |
| 2026-05-07 14:29 | 56.41657 | -6.19250 | 36884 ft | 426 kts | 143° |
| 2026-05-07 14:29 | 56.37176 | -6.12235 | 36896 ft | 426 kts | 144° |
| 2026-05-07 14:30 | 56.32697 | -6.05245 | 36903 ft | 425 kts | 143° |
| 2026-05-07 14:30 | 56.28212 | -5.98270 | 36888 ft | 426 kts | 144° |
| 2026-05-07 14:31 | 56.23724 | -5.91311 | 36903 ft | 426 kts | 143° |
| 2026-05-07 14:31 | 56.19233 | -5.84370 | 36904 ft | 426 kts | 143° |
| 2026-05-07 14:32 | 56.14737 | -5.77444 | 36903 ft | 426 kts | 144° |
| 2026-05-07 14:32 | 56.10239 | -5.70538 | 36912 ft | 426 kts | 144° |
| 2026-05-07 14:33 | 56.05766 | -5.63691 | 36900 ft | 426 kts | 144° |
| 2026-05-07 14:33 | 56.01258 | -5.56812 | 36909 ft | 426 kts | 144° |
| 2026-05-07 14:34 | 55.96743 | -5.49944 | 36927 ft | 426 kts | 143° |
| 2026-05-07 14:34 | 55.92235 | -5.43108 | 36928 ft | 425 kts | 144° |
| 2026-05-07 14:35 | 55.87713 | -5.36274 | 36930 ft | 426 kts | 143° |
| 2026-05-07 14:35 | 55.83188 | -5.29457 | 36943 ft | 426 kts | 143° |
| 2026-05-07 14:36 | 55.78659 | -5.22655 | 36946 ft | 426 kts | 143° |
| 2026-05-07 14:36 | 55.74124 | -5.15864 | 36944 ft | 426 kts | 143° |
| 2026-05-07 14:37 | 55.69583 | -5.09087 | 36940 ft | 427 kts | 143° |
| 2026-05-07 14:37 | 55.62760 | -4.98946 | 36952 ft | 427 kts | 143° |
| 2026-05-07 14:38 | 55.58203 | -4.92197 | 36953 ft | 427 kts | 143° |
| 2026-05-07 14:38 | 55.53644 | -4.85467 | 36932 ft | 427 kts | 143° |
| 2026-05-07 14:39 | 55.49077 | -4.78747 | 36937 ft | 428 kts | 143° |
| 2026-05-07 14:39 | 55.44502 | -4.72034 | 36933 ft | 428 kts | 143° |
| 2026-05-07 14:40 | 55.39925 | -4.65342 | 36942 ft | 428 kts | 143° |
| 2026-05-07 14:40 | 55.35344 | -4.58665 | 36949 ft | 428 kts | 143° |
| 2026-05-07 14:41 | 55.30754 | -4.51992 | 36944 ft | 428 kts | 143° |
| 2026-05-07 14:41 | 55.26168 | -4.45348 | 36943 ft | 428 kts | 143° |
| 2026-05-07 14:42 | 55.21578 | -4.38718 | 36943 ft | 428 kts | 143° |
| 2026-05-07 14:42 | 55.16981 | -4.32100 | 36953 ft | 428 kts | 143° |
| 2026-05-07 14:43 | 55.12380 | -4.25496 | 36954 ft | 428 kts | 143° |
| 2026-05-07 14:43 | 55.07803 | -4.18946 | 36950 ft | 428 kts | 143° |
| 2026-05-07 14:44 | 55.03195 | -4.12373 | 36956 ft | 428 kts | 143° |
| 2026-05-07 14:44 | 54.98581 | -4.05810 | 36963 ft | 428 kts | 143° |
| 2026-05-07 14:45 | 54.93964 | -3.99262 | 36963 ft | 428 kts | 143° |
| 2026-05-07 14:45 | 54.89342 | -3.92729 | 36972 ft | 428 kts | 143° |
| 2026-05-07 14:46 | 54.84708 | -3.86198 | 36967 ft | 429 kts | 143° |
| 2026-05-07 14:46 | 54.80069 | -3.79681 | 36971 ft | 429 kts | 143° |
| 2026-05-07 14:47 | 54.75428 | -3.73179 | 36973 ft | 429 kts | 143° |
| 2026-05-07 14:47 | 54.70786 | -3.66696 | 36989 ft | 429 kts | 143° |
| 2026-05-07 14:48 | 54.66137 | -3.60224 | 36989 ft | 429 kts | 143° |
| 2026-05-07 14:48 | 54.61487 | -3.53770 | 36990 ft | 429 kts | 143° |
| 2026-05-07 14:49 | 54.56838 | -3.47333 | 36989 ft | 429 kts | 143° |
| 2026-05-07 14:49 | 54.52186 | -3.40909 | 36990 ft | 429 kts | 143° |
| 2026-05-07 14:50 | 54.47554 | -3.34532 | 36993 ft | 429 kts | 143° |
| 2026-05-07 14:50 | 54.42891 | -3.28132 | 36997 ft | 429 kts | 143° |
| 2026-05-07 14:51 | 54.38226 | -3.21746 | 36995 ft | 429 kts | 143° |
| 2026-05-07 14:51 | 54.33559 | -3.15378 | 37008 ft | 429 kts | 143° |
| 2026-05-07 14:52 | 54.28881 | -3.09012 | 37007 ft | 429 kts | 143° |
| 2026-05-07 14:52 | 54.24205 | -3.02669 | 37013 ft | 429 kts | 143° |
| 2026-05-07 14:53 | 54.19523 | -2.96335 | 37017 ft | 429 kts | 143° |
| 2026-05-07 14:53 | 54.14437 | -2.91277 | 37057 ft | 422 kts | 161° |
| 2026-05-07 14:54 | 54.09002 | -2.87272 | 37065 ft | 427 kts | 158° |
| 2026-05-07 14:54 | 54.03542 | -2.83261 | 37011 ft | 426 kts | 158° |
| 2026-05-07 14:55 | 53.98121 | -2.79323 | 37015 ft | 427 kts | 158° |
| 2026-05-07 14:55 | 53.92648 | -2.75360 | 37020 ft | 428 kts | 158° |
| 2026-05-07 14:56 | 53.87170 | -2.71408 | 37014 ft | 427 kts | 158° |
| 2026-05-07 14:56 | 53.81693 | -2.67467 | 37026 ft | 428 kts | 158° |
| 2026-05-07 14:57 | 53.76212 | -2.63536 | 37027 ft | 428 kts | 158° |
| 2026-05-07 14:57 | 53.70726 | -2.59612 | 37026 ft | 428 kts | 158° |
| 2026-05-07 14:58 | 53.65245 | -2.55702 | 37029 ft | 428 kts | 158° |
| 2026-05-07 14:58 | 53.59759 | -2.51799 | 37028 ft | 428 kts | 158° |
| 2026-05-07 14:59 | 53.54273 | -2.47908 | 37032 ft | 428 kts | 158° |
| 2026-05-07 14:59 | 53.48777 | -2.44020 | 37038 ft | 429 kts | 158° |
| 2026-05-07 15:00 | 53.43271 | -2.40137 | 37037 ft | 429 kts | 158° |
| 2026-05-07 15:00 | 53.37769 | -2.36268 | 37041 ft | 429 kts | 158° |
| 2026-05-07 15:01 | 53.32265 | -2.32406 | 37051 ft | 429 kts | 158° |
| 2026-05-07 15:01 | 53.26759 | -2.28555 | 37043 ft | 429 kts | 158° |
| 2026-05-07 15:02 | 53.22180 | -2.25361 | 37044 ft | 429 kts | 158° |
| 2026-05-07 15:02 | 53.16672 | -2.21529 | 37045 ft | 429 kts | 158° |
| 2026-05-07 15:03 | 53.11162 | -2.17706 | 37044 ft | 429 kts | 158° |
| 2026-05-07 15:03 | 53.05647 | -2.13890 | 37037 ft | 429 kts | 158° |
| 2026-05-07 15:04 | 53.00132 | -2.10085 | 37033 ft | 429 kts | 158° |
| 2026-05-07 15:04 | 52.94614 | -2.06288 | 37035 ft | 429 kts | 158° |
| 2026-05-07 15:05 | 52.89092 | -2.02499 | 37043 ft | 430 kts | 158° |
| 2026-05-07 15:05 | 52.83568 | -1.98718 | 37036 ft | 430 kts | 158° |
| 2026-05-07 15:06 | 52.78038 | -1.94945 | 37041 ft | 430 kts | 158° |
| 2026-05-07 15:06 | 52.72539 | -1.91203 | 37048 ft | 430 kts | 158° |
| 2026-05-07 15:07 | 52.66994 | -1.87440 | 37047 ft | 431 kts | 158° |
| 2026-05-07 15:07 | 52.61452 | -1.83688 | 37045 ft | 431 kts | 158° |
| 2026-05-07 15:08 | 52.55907 | -1.79946 | 37039 ft | 430 kts | 158° |
| 2026-05-07 15:08 | 52.50364 | -1.76215 | 37049 ft | 431 kts | 158° |
| 2026-05-07 15:09 | 52.44818 | -1.72493 | 37026 ft | 430 kts | 159° |
| 2026-05-07 15:09 | 52.39274 | -1.68780 | 37018 ft | 431 kts | 159° |
| 2026-05-07 15:10 | 52.33820 | -1.64722 | 37028 ft | 431 kts | 154° |
| 2026-05-07 15:10 | 52.28452 | -1.60283 | 37014 ft | 431 kts | 155° |
| 2026-05-07 15:11 | 52.23076 | -1.55916 | 37026 ft | 432 kts | 155° |
| 2026-05-07 15:11 | 52.17687 | -1.51556 | 37027 ft | 432 kts | 155° |
| 2026-05-07 15:12 | 52.12301 | -1.47212 | 37027 ft | 432 kts | 155° |
| 2026-05-07 15:12 | 52.06950 | -1.42898 | 37025 ft | 432 kts | 155° |
| 2026-05-07 15:13 | 52.01544 | -1.38512 | 37024 ft | 432 kts | 155° |
| 2026-05-07 15:13 | 51.96195 | -1.34188 | 37026 ft | 433 kts | 155° |
| 2026-05-07 15:14 | 51.90764 | -1.29808 | 37017 ft | 433 kts | 155° |
| 2026-05-07 15:14 | 51.85412 | -1.25504 | 37017 ft | 433 kts | 155° |
| 2026-05-07 15:15 | 51.80019 | -1.21179 | 37016 ft | 433 kts | 155° |
| 2026-05-07 15:15 | 51.74620 | -1.16860 | 37021 ft | 433 kts | 155° |
| 2026-05-07 15:16 | 51.69217 | -1.12550 | 37024 ft | 433 kts | 155° |
| 2026-05-07 15:16 | 51.63818 | -1.08253 | 37017 ft | 433 kts | 155° |
| 2026-05-07 15:17 | 51.58698 | -1.03179 | 37065 ft | 433 kts | 148° |
| 2026-05-07 15:17 | 51.56031 | -1.00959 | 36929 ft | 429 kts | 163° |
| 2026-05-07 15:17 | 51.53204 | -0.99525 | 37042 ft | 429 kts | 161° |
| 2026-05-07 15:18 | 51.47790 | -0.95359 | 36999 ft | 434 kts | 156° |
| 2026-05-07 15:18 | 51.42367 | -0.91168 | 37046 ft | 433 kts | 156° |
| 2026-05-07 15:19 | 51.36953 | -0.86943 | 37048 ft | 433 kts | 156° |
| 2026-05-07 15:19 | 51.31538 | -0.82723 | 37043 ft | 433 kts | 156° |
| 2026-05-07 15:20 | 51.26129 | -0.78518 | 37048 ft | 433 kts | 156° |
| 2026-05-07 15:20 | 51.20701 | -0.74309 | 37049 ft | 433 kts | 156° |
| 2026-05-07 15:21 | 51.15284 | -0.70119 | 37049 ft | 433 kts | 156° |
| 2026-05-07 15:21 | 51.10044 | -0.65396 | 36986 ft | 436 kts | 140° |
| 2026-05-07 15:22 | 51.08051 | -0.61782 | 37042 ft | 438 kts | 124° |
| 2026-05-07 15:22 | 51.06530 | -0.57561 | 37073 ft | 442 kts | 123° |
| 2026-05-07 15:22 | 51.03072 | -0.49518 | 37118 ft | 442 kts | 126° |
| 2026-05-07 15:23 | 50.99596 | -0.41481 | 37066 ft | 440 kts | 126° |
| 2026-05-07 15:23 | 50.96109 | -0.33456 | 37072 ft | 441 kts | 127° |
| 2026-05-07 15:24 | 50.92834 | -0.25942 | 37078 ft | 441 kts | 127° |
| 2026-05-07 15:24 | 50.89338 | -0.17941 | 37073 ft | 441 kts | 127° |
| 2026-05-07 15:25 | 50.85836 | -0.09955 | 37074 ft | 441 kts | 127° |
| 2026-05-07 15:25 | 50.82330 | -0.01985 | 37072 ft | 441 kts | 127° |
| 2026-05-07 15:26 | 50.78817 | 0.05979 | 37071 ft | 443 kts | 127° |
| 2026-05-07 15:26 | 50.74985 | 0.13571 | 36989 ft | 438 kts | 144° |
| 2026-05-07 15:27 | 50.72564 | 0.16421 | 37215 ft | 434 kts | 143° |
| 2026-05-07 15:27 | 50.70275 | 0.19509 | 36999 ft | 435 kts | 142° |
| 2026-05-07 15:27 | 50.67990 | 0.22508 | 36870 ft | 422 kts | 143° |
| 2026-05-07 15:27 | 50.65735 | 0.25420 | 36466 ft | 417 kts | 143° |
| 2026-05-07 15:28 | 50.63485 | 0.28303 | 35920 ft | 417 kts | 143° |
| 2026-05-07 15:28 | 50.61237 | 0.31173 | 35376 ft | 416 kts | 143° |
| 2026-05-07 15:28 | 50.58993 | 0.34032 | 34893 ft | 413 kts | 143° |
| 2026-05-07 15:28 | 50.56756 | 0.36876 | 34366 ft | 413 kts | 144° |
| 2026-05-07 15:29 | 50.54528 | 0.39707 | 33865 ft | 411 kts | 143° |
| 2026-05-07 15:29 | 50.52309 | 0.42522 | 33401 ft | 409 kts | 143° |
| 2026-05-07 15:29 | 50.50102 | 0.45319 | 32937 ft | 407 kts | 143° |
| 2026-05-07 15:29 | 50.47905 | 0.48100 | 32466 ft | 405 kts | 143° |
| 2026-05-07 15:30 | 50.45716 | 0.50867 | 31957 ft | 404 kts | 143° |
| 2026-05-07 15:30 | 50.43532 | 0.53625 | 31484 ft | 402 kts | 143° |
| 2026-05-07 15:30 | 50.41361 | 0.56362 | 31051 ft | 399 kts | 143° |
| 2026-05-07 15:30 | 50.39202 | 0.59081 | 30595 ft | 397 kts | 143° |
| 2026-05-07 15:31 | 50.37052 | 0.61786 | 30160 ft | 395 kts | 143° |
| 2026-05-07 15:31 | 50.34915 | 0.64471 | 29703 ft | 393 kts | 144° |
| 2026-05-07 15:31 | 50.32784 | 0.67147 | 29239 ft | 392 kts | 143° |
| 2026-05-07 15:31 | 50.30665 | 0.69802 | 28842 ft | 388 kts | 143° |
| 2026-05-07 15:32 | 50.28565 | 0.72433 | 28435 ft | 386 kts | 143° |
| 2026-05-07 15:32 | 50.26476 | 0.75047 | 28020 ft | 383 kts | 143° |
| 2026-05-07 15:32 | 50.24400 | 0.77639 | 27607 ft | 381 kts | 143° |
| 2026-05-07 15:32 | 50.22334 | 0.80218 | 27201 ft | 379 kts | 143° |
| 2026-05-07 15:33 | 50.20282 | 0.82776 | 26801 ft | 376 kts | 143° |
| 2026-05-07 15:33 | 50.18242 | 0.85315 | 26378 ft | 375 kts | 143° |
| 2026-05-07 15:33 | 50.16207 | 0.87845 | 25955 ft | 373 kts | 143° |
| 2026-05-07 15:33 | 50.14185 | 0.90358 | 25588 ft | 370 kts | 143° |
| 2026-05-07 15:34 | 50.12176 | 0.92851 | 25210 ft | 368 kts | 143° |
| 2026-05-07 15:34 | 50.10181 | 0.95323 | 24822 ft | 366 kts | 143° |
| 2026-05-07 15:34 | 50.08196 | 0.97781 | 24436 ft | 364 kts | 143° |
| 2026-05-07 15:34 | 50.06219 | 1.00218 | 24044 ft | 361 kts | 145° |
| 2026-05-07 15:35 | 50.04070 | 1.02210 | 23535 ft | 360 kts | 156° |
| 2026-05-07 15:35 | 50.01926 | 1.04204 | 23107 ft | 361 kts | 141° |
| 2026-05-07 15:35 | 50.00091 | 1.06844 | 22802 ft | 357 kts | 141° |
| 2026-05-07 15:35 | 49.98150 | 1.09214 | 22440 ft | 353 kts | 144° |
| 2026-05-07 15:36 | 49.96196 | 1.11512 | 22064 ft | 351 kts | 145° |
| 2026-05-07 15:36 | 49.94245 | 1.13772 | 21692 ft | 349 kts | 146° |
| 2026-05-07 15:36 | 49.92297 | 1.16003 | 21270 ft | 348 kts | 146° |
| 2026-05-07 15:36 | 49.90344 | 1.18224 | 20571 ft | 348 kts | 146° |
| 2026-05-07 15:37 | 49.88397 | 1.20430 | 19895 ft | 346 kts | 146° |
| 2026-05-07 15:37 | 49.86464 | 1.22616 | 19363 ft | 340 kts | 146° |
| 2026-05-07 15:37 | 49.84583 | 1.24738 | 18965 ft | 330 kts | 146° |
| 2026-05-07 15:37 | 49.82756 | 1.26799 | 18617 ft | 319 kts | 146° |
| 2026-05-07 15:38 | 49.80988 | 1.28791 | 18271 ft | 310 kts | 146° |
| 2026-05-07 15:38 | 49.79268 | 1.30726 | 17960 ft | 305 kts | 146° |
| 2026-05-07 15:38 | 49.77559 | 1.32649 | 17643 ft | 303 kts | 146° |
| 2026-05-07 15:38 | 49.75856 | 1.34562 | 17317 ft | 301 kts | 146° |
| 2026-05-07 15:39 | 49.74186 | 1.36438 | 16999 ft | 300 kts | 146° |
| 2026-05-07 15:39 | 49.72502 | 1.38327 | 16681 ft | 298 kts | 146° |
| 2026-05-07 15:39 | 49.70830 | 1.40200 | 16357 ft | 296 kts | 146° |
| 2026-05-07 15:39 | 49.69169 | 1.42059 | 16038 ft | 295 kts | 146° |
| 2026-05-07 15:40 | 49.67517 | 1.43908 | 15726 ft | 292 kts | 146° |
| 2026-05-07 15:40 | 49.65879 | 1.45739 | 15425 ft | 290 kts | 146° |
| 2026-05-07 15:40 | 49.64251 | 1.47557 | 15120 ft | 288 kts | 146° |
| 2026-05-07 15:40 | 49.62629 | 1.49366 | 14813 ft | 286 kts | 146° |
| 2026-05-07 15:41 | 49.61016 | 1.51166 | 14511 ft | 288 kts | 146° |
| 2026-05-07 15:41 | 49.59377 | 1.52991 | 14193 ft | 293 kts | 146° |
| 2026-05-07 15:41 | 49.57715 | 1.54841 | 13876 ft | 295 kts | 146° |
| 2026-05-07 15:41 | 49.56050 | 1.56691 | 13569 ft | 295 kts | 146° |
| 2026-05-07 15:42 | 49.54381 | 1.58547 | 13247 ft | 296 kts | 146° |
| 2026-05-07 15:42 | 49.52717 | 1.60395 | 12922 ft | 294 kts | 146° |
| 2026-05-07 15:42 | 49.51062 | 1.62230 | 12608 ft | 292 kts | 146° |
| 2026-05-07 15:42 | 49.49418 | 1.64050 | 12292 ft | 290 kts | 146° |
| 2026-05-07 15:43 | 49.47784 | 1.65859 | 11977 ft | 289 kts | 146° |
| 2026-05-07 15:43 | 49.46157 | 1.67660 | 11665 ft | 287 kts | 146° |
| 2026-05-07 15:43 | 49.44539 | 1.69450 | 11355 ft | 285 kts | 145° |
| 2026-05-07 15:43 | 49.42937 | 1.71220 | 11071 ft | 283 kts | 145° |
| 2026-05-07 15:44 | 49.41344 | 1.72978 | 10755 ft | 281 kts | 145° |
| 2026-05-07 15:44 | 49.39756 | 1.74729 | 10444 ft | 280 kts | 145° |
| 2026-05-07 15:44 | 49.38180 | 1.76465 | 10165 ft | 278 kts | 145° |
| 2026-05-07 15:44 | 49.36625 | 1.78177 | 9919 ft | 274 kts | 144° |
| 2026-05-07 15:45 | 49.35078 | 1.79890 | 9623 ft | 273 kts | 145° |
| 2026-05-07 15:45 | 49.33535 | 1.81580 | 9321 ft | 272 kts | 144° |
| 2026-05-07 15:45 | 49.32001 | 1.83262 | 9024 ft | 271 kts | 144° |
| 2026-05-07 15:45 | 49.30476 | 1.84935 | 8718 ft | 269 kts | 144° |
| 2026-05-07 15:46 | 49.27449 | 1.88253 | 8130 ft | 266 kts | 144° |
| 2026-05-07 15:46 | 49.25947 | 1.89898 | 7823 ft | 265 kts | 144° |
| 2026-05-07 15:46 | 49.24445 | 1.91540 | 7506 ft | 264 kts | 144° |
| 2026-05-07 15:47 | 49.22956 | 1.93170 | 7230 ft | 262 kts | 144° |
| 2026-05-07 15:47 | 49.21488 | 1.94773 | 6944 ft | 257 kts | 144° |
| 2026-05-07 15:47 | 49.20059 | 1.96332 | 6650 ft | 254 kts | 144° |
| 2026-05-07 15:47 | 49.18637 | 1.97884 | 6368 ft | 248 kts | 144° |
| 2026-05-07 15:48 | 49.17760 | 1.98841 | 6197 ft | 243 kts | 144° |
| 2026-05-07 15:48 | 49.15979 | 2.00782 | 5829 ft | 233 kts | 144° |
| 2026-05-07 15:48 | 49.14674 | 2.02205 | 5603 ft | 227 kts | 144° |
| 2026-05-07 15:48 | 49.13414 | 2.03577 | 5382 ft | 216 kts | 144° |
| 2026-05-07 15:49 | 49.12212 | 2.04884 | 5090 ft | 209 kts | 143° |
| 2026-05-07 15:49 | 49.11424 | 2.05739 | 4943 ft | 202 kts | 144° |
| 2026-05-07 15:49 | 49.10305 | 2.06951 | 4742 ft | 193 kts | 144° |
| 2026-05-07 15:49 | 49.09228 | 2.08120 | 4428 ft | 189 kts | 144° |
| 2026-05-07 15:50 | 49.08156 | 2.09284 | 4100 ft | 189 kts | 143° |
| 2026-05-07 15:50 | 49.07078 | 2.10452 | 3957 ft | 190 kts | 143° |
| 2026-05-07 15:50 | 49.06014 | 2.11604 | 3932 ft | 190 kts | 143° |
| 2026-05-07 15:50 | 49.04932 | 2.12775 | 3971 ft | 191 kts | 144° |
| 2026-05-07 15:51 | 49.03849 | 2.13952 | 3996 ft | 191 kts | 144° |
| 2026-05-07 15:51 | 49.02750 | 2.15141 | 4005 ft | 191 kts | 144° |
| 2026-05-07 15:51 | 49.01681 | 2.16304 | 3984 ft | 191 kts | 141° |
| 2026-05-07 15:51 | 49.00914 | 2.17905 | 3926 ft | 188 kts | 107° |
| 2026-05-07 15:52 | 49.00776 | 2.19880 | 3994 ft | 189 kts | 89° |
| 2026-05-07 15:52 | 49.00836 | 2.21886 | 4033 ft | 190 kts | 86° |
| 2026-05-07 15:52 | 49.00938 | 2.23894 | 3938 ft | 191 kts | 85° |
| 2026-05-07 15:52 | 49.01045 | 2.25894 | 3712 ft | 188 kts | 85° |
| 2026-05-07 15:53 | 49.01150 | 2.27878 | 3480 ft | 188 kts | 85° |
| 2026-05-07 15:53 | 49.01255 | 2.29855 | 3249 ft | 187 kts | 85° |
| 2026-05-07 15:53 | 49.01360 | 2.31818 | 3008 ft | 185 kts | 85° |
| 2026-05-07 15:53 | 49.01463 | 2.33726 | 2775 ft | 173 kts | 85° |
| 2026-05-07 15:54 | 49.01558 | 2.35496 | 2550 ft | 165 kts | 85° |
| 2026-05-07 15:54 | 49.01650 | 2.37227 | 2331 ft | 163 kts | 85° |
| 2026-05-07 15:54 | 49.01743 | 2.38946 | 2135 ft | 163 kts | 85° |
| 2026-05-07 15:54 | 49.01836 | 2.40665 | 1920 ft | 162 kts | 85° |
| 2026-05-07 15:55 | 49.01927 | 2.42367 | 1690 ft | 156 kts | 85° |
| 2026-05-07 15:55 | 49.02013 | 2.43963 | 1533 ft | 148 kts | 85° |
| 2026-05-07 15:55 | 49.02097 | 2.45510 | 1311 ft | 145 kts | 85° |
| 2026-05-07 15:55 | 49.02176 | 2.47052 | 1098 ft | 147 kts | 85° |
| 2026-05-07 15:56 | 49.02258 | 2.48606 | 856 ft | 147 kts | 84° |
| 2026-05-07 15:56 | 49.02345 | 2.50141 | 670 ft | 146 kts | 85° |
| 2026-05-07 15:56 | 49.02429 | 2.51690 | 508 ft | 147 kts | 84° |
| 2026-05-07 15:56 | 49.02514 | 2.53226 | 364 ft | 147 kts | 85° |
| 2026-05-07 15:57 | 49.02588 | 2.54595 | 359 ft | 99 kts | 86° |
| 2026-05-07 15:57 | 49.02603 | 2.55100 | 362 ft | 25 kts | 94° |
| 2026-05-07 15:57 | 49.02550 | 2.55369 | 361 ft | 26 kts | 118° |
| 2026-05-07 15:57 | 49.02498 | 2.55518 | 361 ft | 8 kts | 118° |
| 2026-05-07 15:58 | 49.02457 | 2.55594 | 360 ft | 11 kts | 152° |
| 2026-05-07 15:58 | 49.02374 | 2.55618 | 359 ft | 14 kts | 177° |
| 2026-05-07 15:58 | 49.02267 | 2.55629 | 357 ft | 17 kts | 175° |
| 2026-05-07 15:58 | 49.02143 | 2.55644 | 357 ft | 17 kts | 176° |
| 2026-05-07 15:59 | 49.02063 | 2.55542 | 359 ft | 17 kts | 266° |
| 2026-05-07 15:59 | 49.02055 | 2.55346 | 357 ft | 20 kts | 266° |
| 2026-05-07 15:59 | 49.02042 | 2.55118 | 357 ft | 23 kts | 263° |
| 2026-05-07 15:59 | 49.02026 | 2.54862 | 358 ft | 25 kts | 268° |
| 2026-05-07 16:00 | 49.02015 | 2.54584 | 360 ft | 28 kts | 264° |
| 2026-05-07 16:00 | 49.02000 | 2.54321 | 363 ft | 24 kts | 266° |
| 2026-05-07 16:00 | 49.01917 | 2.54131 | 362 ft | 19 kts | 189° |
| 2026-05-07 16:00 | 49.01809 | 2.54075 | 357 ft | 18 kts | 251° |
| 2026-05-07 16:01 | 49.01773 | 2.53904 | 355 ft | 19 kts | 237° |
| 2026-05-07 16:01 | 49.01675 | 2.53728 | 348 ft | 20 kts | 218° |
| 2026-05-07 16:01 | 49.01545 | 2.53628 | 349 ft | 22 kts | 198° |
| 2026-05-07 16:01 | 49.01458 | 2.53608 | 350 ft | 7 kts | 186° |
| 2026-05-07 16:02 | 49.01434 | 2.53608 | 351 ft | 3 kts | 179° |
| 2026-05-07 16:02 | 49.01407 | 2.53609 | 351 ft | 5 kts | 179° |
| 2026-05-07 16:02 | 49.01387 | 2.53612 | 352 ft | 1 kts | 169° |
| 2026-05-07 16:02 | 49.01373 | 2.53616 | 352 ft | 3 kts | 169° |
| 2026-05-07 16:03 | 49.01345 | 2.53635 | 352 ft | 5 kts | 138° |
| 2026-05-07 16:03 | 49.01329 | 2.53680 | 352 ft | 4 kts | 110° |
| 2026-05-07 16:03 | 49.01321 | 2.53716 | 352 ft | 3 kts | 109° |
| 2026-05-07 16:03 | 49.01315 | 2.53740 | 352 ft | 2 kts | 109° |
| 2026-05-07 16:04 | 49.01313 | 2.53750 | 352 ft | 1 kts | 109° |
| 2026-05-07 16:04 | 49.01307 | 2.53777 | 352 ft | 5 kts | 109° |
| 2026-05-07 16:04 | 49.01297 | 2.53819 | 353 ft | 2 kts | 109° |
| 2026-05-07 16:04 | 49.01296 | 2.53826 | 353 ft | 0 kts | 109° |